sensor_id;sensor_type;location;lat;lon;timestamp;temperature;humidity
8537;DHT22;4306;50.210;10.628;2023-03-23T00:01:22;12.60;94.50
8537;DHT22;4306;50.210;10.628;2023-03-23T00:03:53;12.50;94.50
8537;DHT22;4306;50.210;10.628;2023-03-23T00:06:24;12.60;94.60
8537;DHT22;4306;50.210;10.628;2023-03-23T00:08:53;12.50;94.60
8537;DHT22;4306;50.210;10.628;2023-03-23T00:11:27;12.50;94.60
8537;DHT22;4306;50.210;10.628;2023-03-23T00:13:56;12.50;94.50
8537;DHT22;4306;50.210;10.628;2023-03-23T00:16:27;12.50;94.70
8537;DHT22;4306;50.210;10.628;2023-03-23T00:18:57;12.50;94.80
8537;DHT22;4306;50.210;10.628;2023-03-23T00:21:25;12.50;94.70
8537;DHT22;4306;50.210;10.628;2023-03-23T00:24:02;12.50;94.80
8537;DHT22;4306;50.210;10.628;2023-03-23T00:26:31;12.60;94.80
8537;DHT22;4306;50.210;10.628;2023-03-23T00:29:00;12.60;94.50
8537;DHT22;4306;50.210;10.628;2023-03-23T00:31:28;12.60;94.70
8537;DHT22;4306;50.210;10.628;2023-03-23T00:33:57;12.60;94.60
8537;DHT22;4306;50.210;10.628;2023-03-23T00:36:27;12.60;94.60
8537;DHT22;4306;50.210;10.628;2023-03-23T00:38:54;12.60;94.60
8537;DHT22;4306;50.210;10.628;2023-03-23T00:41:26;12.60;94.60
8537;DHT22;4306;50.210;10.628;2023-03-23T00:43:54;12.50;94.70
8537;DHT22;4306;50.210;10.628;2023-03-23T00:46:22;12.50;94.70
8537;DHT22;4306;50.210;10.628;2023-03-23T00:48:49;12.60;94.90
8537;DHT22;4306;50.210;10.628;2023-03-23T00:51:17;12.50;94.90
8537;DHT22;4306;50.210;10.628;2023-03-23T00:53:44;12.50;94.90
8537;DHT22;4306;50.210;10.628;2023-03-23T00:56:11;12.60;95.00
8537;DHT22;4306;50.210;10.628;2023-03-23T00:58:40;12.50;94.90
8537;DHT22;4306;50.210;10.628;2023-03-23T01:01:07;12.60;95.30
8537;DHT22;4306;50.210;10.628;2023-03-23T01:03:35;12.60;95.30
8537;DHT22;4306;50.210;10.628;2023-03-23T01:06:05;12.50;95.30
8537;DHT22;4306;50.210;10.628;2023-03-23T01:08:34;12.60;95.30
8537;DHT22;4306;50.210;10.628;2023-03-23T01:11:03;12.60;95.30
8537;DHT22;4306;50.210;10.628;2023-03-23T01:13:31;12.60;95.40
8537;DHT22;4306;50.210;10.628;2023-03-23T01:15:59;12.50;95.20
8537;DHT22;4306;50.210;10.628;2023-03-23T01:18:26;12.50;95.40
8537;DHT22;4306;50.210;10.628;2023-03-23T01:20:53;12.50;95.40
8537;DHT22;4306;50.210;10.628;2023-03-23T01:23:19;12.60;95.40
8537;DHT22;4306;50.210;10.628;2023-03-23T01:25:46;12.60;95.50
8537;DHT22;4306;50.210;10.628;2023-03-23T01:28:14;12.50;95.30
8537;DHT22;4306;50.210;10.628;2023-03-23T01:30:41;12.50;95.20
8537;DHT22;4306;50.210;10.628;2023-03-23T01:33:10;12.50;95.30
8537;DHT22;4306;50.210;10.628;2023-03-23T01:35:37;12.50;95.30
8537;DHT22;4306;50.210;10.628;2023-03-23T01:38:04;12.60;95.30
8537;DHT22;4306;50.210;10.628;2023-03-23T01:40:31;12.60;95.30
8537;DHT22;4306;50.210;10.628;2023-03-23T01:42:58;12.60;95.40
8537;DHT22;4306;50.210;10.628;2023-03-23T01:45:28;12.50;95.40
8537;DHT22;4306;50.210;10.628;2023-03-23T01:48:03;12.60;95.50
8537;DHT22;4306;50.210;10.628;2023-03-23T01:50:38;12.60;95.40
8537;DHT22;4306;50.210;10.628;2023-03-23T01:53:09;12.60;95.30
8537;DHT22;4306;50.210;10.628;2023-03-23T01:55:38;12.60;95.50
8537;DHT22;4306;50.210;10.628;2023-03-23T01:58:06;12.50;95.50
8537;DHT22;4306;50.210;10.628;2023-03-23T02:00:34;12.50;95.50
8537;DHT22;4306;50.210;10.628;2023-03-23T02:03:03;12.50;95.40
8537;DHT22;4306;50.210;10.628;2023-03-23T02:05:33;12.50;95.50
8537;DHT22;4306;50.210;10.628;2023-03-23T02:08:04;12.50;95.50
8537;DHT22;4306;50.210;10.628;2023-03-23T02:10:35;12.60;95.70
8537;DHT22;4306;50.210;10.628;2023-03-23T02:13:04;12.60;95.70
8537;DHT22;4306;50.210;10.628;2023-03-23T02:15:38;12.50;95.70
8537;DHT22;4306;50.210;10.628;2023-03-23T02:18:12;12.60;95.60
8537;DHT22;4306;50.210;10.628;2023-03-23T02:24:15;12.60;95.60
8537;DHT22;4306;50.210;10.628;2023-03-23T02:26:53;12.60;95.60
8537;DHT22;4306;50.210;10.628;2023-03-23T02:29:58;12.60;95.50
8537;DHT22;4306;50.210;10.628;2023-03-23T02:32:52;12.60;95.60
8537;DHT22;4306;50.210;10.628;2023-03-23T02:35:29;12.60;95.60
8537;DHT22;4306;50.210;10.628;2023-03-23T02:37:59;12.60;95.70
8537;DHT22;4306;50.210;10.628;2023-03-23T02:40:30;12.60;95.60
8537;DHT22;4306;50.210;10.628;2023-03-23T02:43:00;12.60;95.60
8537;DHT22;4306;50.210;10.628;2023-03-23T02:45:28;12.60;95.70
8537;DHT22;4306;50.210;10.628;2023-03-23T02:47:57;12.60;95.60
8537;DHT22;4306;50.210;10.628;2023-03-23T02:50:29;12.60;95.50
8537;DHT22;4306;50.210;10.628;2023-03-23T02:52:57;12.60;95.50
8537;DHT22;4306;50.210;10.628;2023-03-23T02:55:26;12.50;95.40
8537;DHT22;4306;50.210;10.628;2023-03-23T02:57:54;12.60;95.50
8537;DHT22;4306;50.210;10.628;2023-03-23T03:00:21;12.60;95.50
8537;DHT22;4306;50.210;10.628;2023-03-23T03:02:50;12.50;95.50
8537;DHT22;4306;50.210;10.628;2023-03-23T03:05:32;12.50;95.60
8537;DHT22;4306;50.210;10.628;2023-03-23T03:08:10;12.50;95.60
8537;DHT22;4306;50.210;10.628;2023-03-23T03:10:46;12.50;95.70
8537;DHT22;4306;50.210;10.628;2023-03-23T03:13:22;12.50;95.60
8537;DHT22;4306;50.210;10.628;2023-03-23T03:15:55;12.50;95.80
8537;DHT22;4306;50.210;10.628;2023-03-23T03:18:27;12.40;95.60
8537;DHT22;4306;50.210;10.628;2023-03-23T03:20:59;12.40;95.60
8537;DHT22;4306;50.210;10.628;2023-03-23T03:23:28;12.40;95.60
8537;DHT22;4306;50.210;10.628;2023-03-23T03:25:56;12.40;95.70
8537;DHT22;4306;50.210;10.628;2023-03-23T03:28:25;12.40;95.70
8537;DHT22;4306;50.210;10.628;2023-03-23T03:30:55;12.40;95.70
8537;DHT22;4306;50.210;10.628;2023-03-23T03:33:23;12.30;95.80
8537;DHT22;4306;50.210;10.628;2023-03-23T03:35:52;12.30;95.90
8537;DHT22;4306;50.210;10.628;2023-03-23T03:38:20;12.30;95.90
8537;DHT22;4306;50.210;10.628;2023-03-23T03:40:48;12.30;96.00
8537;DHT22;4306;50.210;10.628;2023-03-23T03:43:14;12.30;95.90
8537;DHT22;4306;50.210;10.628;2023-03-23T03:45:41;12.30;95.90
8537;DHT22;4306;50.210;10.628;2023-03-23T03:48:08;12.20;95.90
8537;DHT22;4306;50.210;10.628;2023-03-23T03:50:35;12.30;95.90
8537;DHT22;4306;50.210;10.628;2023-03-23T03:53:02;12.20;95.80
8537;DHT22;4306;50.210;10.628;2023-03-23T03:55:31;12.30;95.90
8537;DHT22;4306;50.210;10.628;2023-03-23T03:58:01;12.30;95.90
8537;DHT22;4306;50.210;10.628;2023-03-23T04:00:30;12.30;95.90
8537;DHT22;4306;50.210;10.628;2023-03-23T04:02:57;12.20;95.70
8537;DHT22;4306;50.210;10.628;2023-03-23T04:05:25;12.30;95.80
8537;DHT22;4306;50.210;10.628;2023-03-23T04:07:54;12.30;95.70
8537;DHT22;4306;50.210;10.628;2023-03-23T04:10:28;12.40;95.70
8537;DHT22;4306;50.210;10.628;2023-03-23T04:12:57;12.30;95.50
8537;DHT22;4306;50.210;10.628;2023-03-23T04:15:24;12.40;95.60
8537;DHT22;4306;50.210;10.628;2023-03-23T04:17:51;12.30;95.50
8537;DHT22;4306;50.210;10.628;2023-03-23T04:20:18;12.30;95.40
8537;DHT22;4306;50.210;10.628;2023-03-23T04:22:46;12.40;95.30
8537;DHT22;4306;50.210;10.628;2023-03-23T04:25:18;12.40;94.90
8537;DHT22;4306;50.210;10.628;2023-03-23T04:27:46;12.40;95.00
8537;DHT22;4306;50.210;10.628;2023-03-23T04:30:20;12.40;95.20
8537;DHT22;4306;50.210;10.628;2023-03-23T04:32:48;12.40;95.30
8537;DHT22;4306;50.210;10.628;2023-03-23T04:35:19;12.40;95.70
8537;DHT22;4306;50.210;10.628;2023-03-23T04:37:46;12.40;95.60
8537;DHT22;4306;50.210;10.628;2023-03-23T04:40:14;12.40;95.60
8537;DHT22;4306;50.210;10.628;2023-03-23T04:42:41;12.40;95.40
8537;DHT22;4306;50.210;10.628;2023-03-23T04:45:11;12.50;95.60
8537;DHT22;4306;50.210;10.628;2023-03-23T04:47:41;12.40;95.30
8537;DHT22;4306;50.210;10.628;2023-03-23T04:50:19;12.40;95.20
8537;DHT22;4306;50.210;10.628;2023-03-23T04:52:47;12.40;95.50
8537;DHT22;4306;50.210;10.628;2023-03-23T04:55:14;12.40;95.50
8537;DHT22;4306;50.210;10.628;2023-03-23T04:57:41;12.50;95.60
8537;DHT22;4306;50.210;10.628;2023-03-23T05:00:09;12.40;95.50
8537;DHT22;4306;50.210;10.628;2023-03-23T05:02:41;12.50;95.50
8537;DHT22;4306;50.210;10.628;2023-03-23T05:05:09;12.40;95.60
8537;DHT22;4306;50.210;10.628;2023-03-23T05:07:37;12.40;95.70
8537;DHT22;4306;50.210;10.628;2023-03-23T05:10:05;12.40;95.60
8537;DHT22;4306;50.210;10.628;2023-03-23T05:12:33;12.40;95.70
8537;DHT22;4306;50.210;10.628;2023-03-23T05:15:00;12.40;95.70
8537;DHT22;4306;50.210;10.628;2023-03-23T05:17:27;12.40;95.60
8537;DHT22;4306;50.210;10.628;2023-03-23T05:19:56;12.40;95.80
8537;DHT22;4306;50.210;10.628;2023-03-23T05:22:26;12.30;95.80
8537;DHT22;4306;50.210;10.628;2023-03-23T05:24:53;12.40;95.90
8537;DHT22;4306;50.210;10.628;2023-03-23T05:27:20;12.40;95.90
8537;DHT22;4306;50.210;10.628;2023-03-23T05:29:47;12.40;96.20
8537;DHT22;4306;50.210;10.628;2023-03-23T05:32:15;12.30;95.90
8537;DHT22;4306;50.210;10.628;2023-03-23T05:34:42;12.30;96.20
8537;DHT22;4306;50.210;10.628;2023-03-23T05:37:10;12.40;96.40
8537;DHT22;4306;50.210;10.628;2023-03-23T05:39:39;12.30;96.50
8537;DHT22;4306;50.210;10.628;2023-03-23T05:42:06;12.40;96.60
8537;DHT22;4306;50.210;10.628;2023-03-23T05:44:33;12.30;96.60
8537;DHT22;4306;50.210;10.628;2023-03-23T05:47:00;12.30;96.90
8537;DHT22;4306;50.210;10.628;2023-03-23T05:49:27;12.30;96.90
8537;DHT22;4306;50.210;10.628;2023-03-23T05:51:54;12.30;97.20
8537;DHT22;4306;50.210;10.628;2023-03-23T05:54:22;12.30;97.20
8537;DHT22;4306;50.210;10.628;2023-03-23T05:56:49;12.30;97.10
8537;DHT22;4306;50.210;10.628;2023-03-23T05:59:16;12.40;97.40
8537;DHT22;4306;50.210;10.628;2023-03-23T06:01:43;12.40;97.50
8537;DHT22;4306;50.210;10.628;2023-03-23T06:04:10;12.40;97.90
8537;DHT22;4306;50.210;10.628;2023-03-23T06:06:37;12.40;97.90
8537;DHT22;4306;50.210;10.628;2023-03-23T06:09:04;12.30;98.10
8537;DHT22;4306;50.210;10.628;2023-03-23T06:11:33;12.30;98.50
8537;DHT22;4306;50.210;10.628;2023-03-23T06:14:00;12.30;98.60
8537;DHT22;4306;50.210;10.628;2023-03-23T06:16:28;12.30;99.00
8537;DHT22;4306;50.210;10.628;2023-03-23T06:18:55;12.30;99.10
8537;DHT22;4306;50.210;10.628;2023-03-23T06:21:23;12.30;99.10
8537;DHT22;4306;50.210;10.628;2023-03-23T06:23:50;12.30;99.30
8537;DHT22;4306;50.210;10.628;2023-03-23T06:26:19;12.20;99.70
8537;DHT22;4306;50.210;10.628;2023-03-23T06:28:47;12.20;99.90
8537;DHT22;4306;50.210;10.628;2023-03-23T06:31:14;12.10;99.90
8537;DHT22;4306;50.210;10.628;2023-03-23T06:33:42;12.10;99.90
8537;DHT22;4306;50.210;10.628;2023-03-23T06:36:10;12.10;99.90
8537;DHT22;4306;50.210;10.628;2023-03-23T06:38:37;12.10;99.90
8537;DHT22;4306;50.210;10.628;2023-03-23T06:41:05;12.10;99.90
8537;DHT22;4306;50.210;10.628;2023-03-23T06:43:31;12.00;99.90
8537;DHT22;4306;50.210;10.628;2023-03-23T06:46:00;12.00;99.90
8537;DHT22;4306;50.210;10.628;2023-03-23T06:48:27;12.00;99.90
8537;DHT22;4306;50.210;10.628;2023-03-23T06:50:54;11.80;99.90
8537;DHT22;4306;50.210;10.628;2023-03-23T06:53:21;11.90;99.90
8537;DHT22;4306;50.210;10.628;2023-03-23T06:55:48;11.80;99.90
8537;DHT22;4306;50.210;10.628;2023-03-23T06:58:15;11.60;99.90
8537;DHT22;4306;50.210;10.628;2023-03-23T07:00:42;11.70;99.90
8537;DHT22;4306;50.210;10.628;2023-03-23T07:03:12;11.80;99.90
8537;DHT22;4306;50.210;10.628;2023-03-23T07:05:39;11.80;99.90
8537;DHT22;4306;50.210;10.628;2023-03-23T07:08:06;11.80;99.90
8537;DHT22;4306;50.210;10.628;2023-03-23T07:10:33;11.90;99.90
8537;DHT22;4306;50.210;10.628;2023-03-23T07:13:00;11.90;99.90
8537;DHT22;4306;50.210;10.628;2023-03-23T07:15:27;12.00;99.90
8537;DHT22;4306;50.210;10.628;2023-03-23T07:17:54;12.00;99.90
8537;DHT22;4306;50.210;10.628;2023-03-23T07:20:22;12.10;99.90
8537;DHT22;4306;50.210;10.628;2023-03-23T07:22:49;12.10;99.90
8537;DHT22;4306;50.210;10.628;2023-03-23T07:25:16;12.00;99.90
8537;DHT22;4306;50.210;10.628;2023-03-23T07:27:44;12.00;99.90
8537;DHT22;4306;50.210;10.628;2023-03-23T07:30:12;12.00;99.90
8537;DHT22;4306;50.210;10.628;2023-03-23T07:32:40;11.90;99.90
8537;DHT22;4306;50.210;10.628;2023-03-23T07:35:08;11.90;99.90
8537;DHT22;4306;50.210;10.628;2023-03-23T07:37:36;12.00;99.90
8537;DHT22;4306;50.210;10.628;2023-03-23T07:40:04;12.00;99.90
8537;DHT22;4306;50.210;10.628;2023-03-23T07:42:40;12.00;99.90
8537;DHT22;4306;50.210;10.628;2023-03-23T07:45:08;12.00;99.90
8537;DHT22;4306;50.210;10.628;2023-03-23T07:47:35;12.00;99.90
8537;DHT22;4306;50.210;10.628;2023-03-23T07:50:03;12.00;99.90
8537;DHT22;4306;50.210;10.628;2023-03-23T07:52:30;12.00;99.90
8537;DHT22;4306;50.210;10.628;2023-03-23T07:54:59;12.00;99.90
8537;DHT22;4306;50.210;10.628;2023-03-23T07:57:27;12.00;99.90
8537;DHT22;4306;50.210;10.628;2023-03-23T07:59:54;12.20;99.90
8537;DHT22;4306;50.210;10.628;2023-03-23T08:02:21;12.20;99.90
8537;DHT22;4306;50.210;10.628;2023-03-23T08:04:48;12.30;99.90
8537;DHT22;4306;50.210;10.628;2023-03-23T08:07:15;12.40;99.90
8537;DHT22;4306;50.210;10.628;2023-03-23T08:09:44;12.30;99.90
8537;DHT22;4306;50.210;10.628;2023-03-23T08:12:13;12.30;99.90
8537;DHT22;4306;50.210;10.628;2023-03-23T08:14:40;12.30;99.90
8537;DHT22;4306;50.210;10.628;2023-03-23T08:17:08;12.30;99.90
8537;DHT22;4306;50.210;10.628;2023-03-23T08:19:35;12.30;99.90
8537;DHT22;4306;50.210;10.628;2023-03-23T08:22:03;12.40;99.90
8537;DHT22;4306;50.210;10.628;2023-03-23T08:24:30;12.50;99.90
8537;DHT22;4306;50.210;10.628;2023-03-23T08:26:58;12.40;99.90
8537;DHT22;4306;50.210;10.628;2023-03-23T08:29:26;12.30;99.90
8537;DHT22;4306;50.210;10.628;2023-03-23T08:31:53;12.30;99.90
8537;DHT22;4306;50.210;10.628;2023-03-23T08:34:21;12.50;99.90
8537;DHT22;4306;50.210;10.628;2023-03-23T08:36:48;12.50;99.90
8537;DHT22;4306;50.210;10.628;2023-03-23T08:39:17;12.60;99.90
8537;DHT22;4306;50.210;10.628;2023-03-23T08:41:44;12.60;99.90
8537;DHT22;4306;50.210;10.628;2023-03-23T08:44:11;12.70;99.90
8537;DHT22;4306;50.210;10.628;2023-03-23T08:46:40;12.80;99.90
8537;DHT22;4306;50.210;10.628;2023-03-23T08:49:07;12.90;99.90
8537;DHT22;4306;50.210;10.628;2023-03-23T08:51:34;12.90;99.90
8537;DHT22;4306;50.210;10.628;2023-03-23T08:54:02;13.00;99.90
8537;DHT22;4306;50.210;10.628;2023-03-23T08:56:29;13.00;99.90
8537;DHT22;4306;50.210;10.628;2023-03-23T08:58:56;13.00;99.90
8537;DHT22;4306;50.210;10.628;2023-03-23T09:01:23;13.00;99.90
8537;DHT22;4306;50.210;10.628;2023-03-23T09:03:51;13.00;99.90
8537;DHT22;4306;50.210;10.628;2023-03-23T09:06:18;13.00;99.90
8537;DHT22;4306;50.210;10.628;2023-03-23T09:08:44;13.20;99.90
8537;DHT22;4306;50.210;10.628;2023-03-23T09:11:11;13.20;99.90
8537;DHT22;4306;50.210;10.628;2023-03-23T09:13:39;13.30;99.90
8537;DHT22;4306;50.210;10.628;2023-03-23T09:16:07;13.40;99.90
8537;DHT22;4306;50.210;10.628;2023-03-23T09:18:35;13.50;99.90
8537;DHT22;4306;50.210;10.628;2023-03-23T09:21:04;13.50;99.90
8537;DHT22;4306;50.210;10.628;2023-03-23T09:23:32;13.60;99.90
8537;DHT22;4306;50.210;10.628;2023-03-23T09:26:00;13.60;99.90
8537;DHT22;4306;50.210;10.628;2023-03-23T09:28:27;13.60;99.90
8537;DHT22;4306;50.210;10.628;2023-03-23T09:30:55;13.70;99.90
8537;DHT22;4306;50.210;10.628;2023-03-23T09:33:23;13.60;99.90
8537;DHT22;4306;50.210;10.628;2023-03-23T09:35:50;13.60;99.90
8537;DHT22;4306;50.210;10.628;2023-03-23T09:38:19;13.60;99.90
8537;DHT22;4306;50.210;10.628;2023-03-23T09:40:48;13.60;99.90
8537;DHT22;4306;50.210;10.628;2023-03-23T09:43:40;13.30;99.90
8537;DHT22;4306;50.210;10.628;2023-03-23T09:49:00;13.30;99.90
8537;DHT22;4306;50.210;10.628;2023-03-23T09:51:36;13.30;99.90
8537;DHT22;4306;50.210;10.628;2023-03-23T09:54:12;13.30;99.90
8537;DHT22;4306;50.210;10.628;2023-03-23T09:56:41;13.20;99.90
8537;DHT22;4306;50.210;10.628;2023-03-23T09:59:14;13.10;99.90
8537;DHT22;4306;50.210;10.628;2023-03-23T10:01:45;13.10;99.90
8537;DHT22;4306;50.210;10.628;2023-03-23T10:04:19;13.10;99.90
8537;DHT22;4306;50.210;10.628;2023-03-23T10:06:50;13.10;99.90
8537;DHT22;4306;50.210;10.628;2023-03-23T10:09:19;13.20;99.90
8537;DHT22;4306;50.210;10.628;2023-03-23T10:11:54;13.30;99.90
8537;DHT22;4306;50.210;10.628;2023-03-23T10:14:36;13.10;99.90
8537;DHT22;4306;50.210;10.628;2023-03-23T10:17:13;13.10;99.90
8537;DHT22;4306;50.210;10.628;2023-03-23T10:19:47;13.20;99.90
8537;DHT22;4306;50.210;10.628;2023-03-23T10:22:20;13.10;99.90
8537;DHT22;4306;50.210;10.628;2023-03-23T10:24:52;13.10;99.90
8537;DHT22;4306;50.210;10.628;2023-03-23T10:27:27;13.20;99.90
8537;DHT22;4306;50.210;10.628;2023-03-23T10:30:02;13.40;99.90
8537;DHT22;4306;50.210;10.628;2023-03-23T10:32:40;13.30;99.90
8537;DHT22;4306;50.210;10.628;2023-03-23T10:35:12;13.30;99.90
8537;DHT22;4306;50.210;10.628;2023-03-23T10:37:44;13.30;99.90
8537;DHT22;4306;50.210;10.628;2023-03-23T10:40:16;13.40;99.90
8537;DHT22;4306;50.210;10.628;2023-03-23T10:42:45;13.60;99.90
8537;DHT22;4306;50.210;10.628;2023-03-23T10:45:17;13.60;99.90
8537;DHT22;4306;50.210;10.628;2023-03-23T10:47:49;13.50;99.90
8537;DHT22;4306;50.210;10.628;2023-03-23T10:50:23;13.50;99.90
8537;DHT22;4306;50.210;10.628;2023-03-23T10:52:52;13.70;99.90
8537;DHT22;4306;50.210;10.628;2023-03-23T10:55:23;13.70;99.90
8537;DHT22;4306;50.210;10.628;2023-03-23T10:58:01;13.70;99.90
8537;DHT22;4306;50.210;10.628;2023-03-23T11:00:29;13.60;99.90
8537;DHT22;4306;50.210;10.628;2023-03-23T11:03:00;13.90;99.90
8537;DHT22;4306;50.210;10.628;2023-03-23T11:05:36;13.90;99.90
8537;DHT22;4306;50.210;10.628;2023-03-23T11:08:11;13.90;99.90
8537;DHT22;4306;50.210;10.628;2023-03-23T11:10:51;14.00;99.90
8537;DHT22;4306;50.210;10.628;2023-03-23T11:13:20;14.10;99.90
8537;DHT22;4306;50.210;10.628;2023-03-23T11:15:48;14.10;99.90
8537;DHT22;4306;50.210;10.628;2023-03-23T11:18:19;14.10;99.90
8537;DHT22;4306;50.210;10.628;2023-03-23T11:20:50;14.20;99.90
8537;DHT22;4306;50.210;10.628;2023-03-23T11:23:21;14.20;99.90
8537;DHT22;4306;50.210;10.628;2023-03-23T11:26:00;14.30;99.90
8537;DHT22;4306;50.210;10.628;2023-03-23T11:28:31;14.40;99.90
8537;DHT22;4306;50.210;10.628;2023-03-23T11:31:01;14.30;99.90
8537;DHT22;4306;50.210;10.628;2023-03-23T11:33:30;14.40;99.90
8537;DHT22;4306;50.210;10.628;2023-03-23T11:35:57;14.40;99.90
8537;DHT22;4306;50.210;10.628;2023-03-23T11:38:25;14.40;99.90
8537;DHT22;4306;50.210;10.628;2023-03-23T11:40:54;14.20;99.90
8537;DHT22;4306;50.210;10.628;2023-03-23T11:43:24;14.10;99.90
8537;DHT22;4306;50.210;10.628;2023-03-23T11:45:59;13.90;99.90
8537;DHT22;4306;50.210;10.628;2023-03-23T11:48:34;14.00;99.90
8537;DHT22;4306;50.210;10.628;2023-03-23T11:51:04;13.90;99.90
8537;DHT22;4306;50.210;10.628;2023-03-23T11:53:42;13.80;99.90
8537;DHT22;4306;50.210;10.628;2023-03-23T11:56:15;13.70;99.90
8537;DHT22;4306;50.210;10.628;2023-03-23T11:58:45;13.60;99.90
8537;DHT22;4306;50.210;10.628;2023-03-23T12:01:21;13.60;99.90
8537;DHT22;4306;50.210;10.628;2023-03-23T12:04:04;13.60;99.90
8537;DHT22;4306;50.210;10.628;2023-03-23T12:06:44;13.50;99.90
8537;DHT22;4306;50.210;10.628;2023-03-23T12:09:29;13.50;99.90
8537;DHT22;4306;50.210;10.628;2023-03-23T12:12:08;13.50;99.90
8537;DHT22;4306;50.210;10.628;2023-03-23T12:14:44;13.50;99.90
8537;DHT22;4306;50.210;10.628;2023-03-23T12:17:20;13.50;99.90
8537;DHT22;4306;50.210;10.628;2023-03-23T12:19:56;13.40;99.90
8537;DHT22;4306;50.210;10.628;2023-03-23T12:22:37;13.30;99.90
8537;DHT22;4306;50.210;10.628;2023-03-23T12:28:19;13.50;99.90
8537;DHT22;4306;50.210;10.628;2023-03-23T12:30:56;13.40;99.90
8537;DHT22;4306;50.210;10.628;2023-03-23T12:33:34;13.30;99.90
8537;DHT22;4306;50.210;10.628;2023-03-23T12:36:11;13.30;99.90
8537;DHT22;4306;50.210;10.628;2023-03-23T12:39:05;13.30;99.90
8537;DHT22;4306;50.210;10.628;2023-03-23T12:41:41;13.30;99.90
8537;DHT22;4306;50.210;10.628;2023-03-23T12:44:11;13.40;99.90
8537;DHT22;4306;50.210;10.628;2023-03-23T12:49:41;13.50;99.90
8537;DHT22;4306;50.210;10.628;2023-03-23T12:52:16;13.50;99.90
8537;DHT22;4306;50.210;10.628;2023-03-23T12:54:47;13.40;99.90
8537;DHT22;4306;50.210;10.628;2023-03-23T12:57:22;13.40;99.90
8537;DHT22;4306;50.210;10.628;2023-03-23T12:59:58;13.40;99.90
8537;DHT22;4306;50.210;10.628;2023-03-23T13:02:30;13.40;99.90
8537;DHT22;4306;50.210;10.628;2023-03-23T13:05:01;13.40;99.90
8537;DHT22;4306;50.210;10.628;2023-03-23T13:07:35;13.40;99.90
8537;DHT22;4306;50.210;10.628;2023-03-23T13:10:12;13.50;99.90
8537;DHT22;4306;50.210;10.628;2023-03-23T13:12:45;13.30;99.90
8537;DHT22;4306;50.210;10.628;2023-03-23T13:15:22;13.40;99.90
8537;DHT22;4306;50.210;10.628;2023-03-23T13:17:56;13.40;99.90
8537;DHT22;4306;50.210;10.628;2023-03-23T13:20:54;13.50;99.90
8537;DHT22;4306;50.210;10.628;2023-03-23T13:23:24;13.40;99.90
8537;DHT22;4306;50.210;10.628;2023-03-23T13:25:55;13.40;99.90
8537;DHT22;4306;50.210;10.628;2023-03-23T13:28:24;13.40;99.90
8537;DHT22;4306;50.210;10.628;2023-03-23T13:30:58;13.30;99.90
8537;DHT22;4306;50.210;10.628;2023-03-23T13:33:30;13.20;99.90
8537;DHT22;4306;50.210;10.628;2023-03-23T13:36:07;13.20;99.90
8537;DHT22;4306;50.210;10.628;2023-03-23T13:38:36;13.20;99.90
8537;DHT22;4306;50.210;10.628;2023-03-23T13:41:08;13.50;99.90
8537;DHT22;4306;50.210;10.628;2023-03-23T13:43:37;13.30;99.90
8537;DHT22;4306;50.210;10.628;2023-03-23T13:46:26;13.00;99.90
8537;DHT22;4306;50.210;10.628;2023-03-23T13:49:16;13.10;99.90
8537;DHT22;4306;50.210;10.628;2023-03-23T13:51:56;13.10;99.90
8537;DHT22;4306;50.210;10.628;2023-03-23T13:54:30;13.10;99.90
8537;DHT22;4306;50.210;10.628;2023-03-23T13:56:59;13.10;99.90
8537;DHT22;4306;50.210;10.628;2023-03-23T13:59:35;13.10;99.90
8537;DHT22;4306;50.210;10.628;2023-03-23T14:02:30;13.20;99.90
8537;DHT22;4306;50.210;10.628;2023-03-23T14:05:29;13.20;99.90
8537;DHT22;4306;50.210;10.628;2023-03-23T14:07:58;13.20;99.90
8537;DHT22;4306;50.210;10.628;2023-03-23T14:10:32;13.20;99.90
8537;DHT22;4306;50.210;10.628;2023-03-23T14:13:01;13.10;99.90
8537;DHT22;4306;50.210;10.628;2023-03-23T14:15:29;13.20;99.90
8537;DHT22;4306;50.210;10.628;2023-03-23T14:17:57;13.20;99.90
8537;DHT22;4306;50.210;10.628;2023-03-23T14:20:29;13.30;99.90
8537;DHT22;4306;50.210;10.628;2023-03-23T14:22:57;13.30;99.90
8537;DHT22;4306;50.210;10.628;2023-03-23T14:25:27;13.20;99.90
8537;DHT22;4306;50.210;10.628;2023-03-23T14:27:56;13.20;99.90
8537;DHT22;4306;50.210;10.628;2023-03-23T14:30:25;13.20;99.90
8537;DHT22;4306;50.210;10.628;2023-03-23T14:32:53;13.30;99.90
8537;DHT22;4306;50.210;10.628;2023-03-23T14:35:25;13.20;99.90
8537;DHT22;4306;50.210;10.628;2023-03-23T14:37:54;13.20;99.90
8537;DHT22;4306;50.210;10.628;2023-03-23T14:40:22;13.20;99.90
8537;DHT22;4306;50.210;10.628;2023-03-23T14:42:50;13.20;99.90
8537;DHT22;4306;50.210;10.628;2023-03-23T14:45:20;13.30;99.90
8537;DHT22;4306;50.210;10.628;2023-03-23T14:47:51;13.30;99.90
8537;DHT22;4306;50.210;10.628;2023-03-23T14:50:27;13.30;99.90
8537;DHT22;4306;50.210;10.628;2023-03-23T14:52:59;13.30;99.90
8537;DHT22;4306;50.210;10.628;2023-03-23T14:55:26;13.30;99.90
8537;DHT22;4306;50.210;10.628;2023-03-23T14:58:06;13.30;99.90
8537;DHT22;4306;50.210;10.628;2023-03-23T15:00:35;13.40;99.90
8537;DHT22;4306;50.210;10.628;2023-03-23T15:03:04;13.40;99.90
8537;DHT22;4306;50.210;10.628;2023-03-23T15:05:34;13.50;99.90
8537;DHT22;4306;50.210;10.628;2023-03-23T15:08:06;13.50;99.90
8537;DHT22;4306;50.210;10.628;2023-03-23T15:10:34;13.50;99.90
8537;DHT22;4306;50.210;10.628;2023-03-23T15:13:01;13.50;99.90
8537;DHT22;4306;50.210;10.628;2023-03-23T15:15:30;13.50;99.90
8537;DHT22;4306;50.210;10.628;2023-03-23T15:17:58;13.60;99.90
8537;DHT22;4306;50.210;10.628;2023-03-23T15:20:29;13.60;99.90
8537;DHT22;4306;50.210;10.628;2023-03-23T15:23:04;13.60;99.90
8537;DHT22;4306;50.210;10.628;2023-03-23T15:25:34;13.60;99.90
8537;DHT22;4306;50.210;10.628;2023-03-23T15:28:15;13.60;99.90
8537;DHT22;4306;50.210;10.628;2023-03-23T15:30:47;13.60;99.90
8537;DHT22;4306;50.210;10.628;2023-03-23T15:33:15;13.60;99.90
8537;DHT22;4306;50.210;10.628;2023-03-23T15:35:46;13.60;99.90
8537;DHT22;4306;50.210;10.628;2023-03-23T15:38:20;13.60;99.90
8537;DHT22;4306;50.210;10.628;2023-03-23T15:40:51;13.60;99.90
8537;DHT22;4306;50.210;10.628;2023-03-23T15:43:20;13.70;99.90
8537;DHT22;4306;50.210;10.628;2023-03-23T15:45:55;13.60;99.90
8537;DHT22;4306;50.210;10.628;2023-03-23T15:48:26;13.60;99.90
8537;DHT22;4306;50.210;10.628;2023-03-23T15:50:53;13.70;99.90
8537;DHT22;4306;50.210;10.628;2023-03-23T15:53:28;13.60;99.90
8537;DHT22;4306;50.210;10.628;2023-03-23T15:55:58;13.60;99.90
8537;DHT22;4306;50.210;10.628;2023-03-23T15:58:26;13.50;99.90
8537;DHT22;4306;50.210;10.628;2023-03-23T16:00:53;13.50;99.90
8537;DHT22;4306;50.210;10.628;2023-03-23T16:03:23;13.40;99.90
8537;DHT22;4306;50.210;10.628;2023-03-23T16:05:52;13.40;99.90
8537;DHT22;4306;50.210;10.628;2023-03-23T16:08:20;13.40;99.90
8537;DHT22;4306;50.210;10.628;2023-03-23T16:10:49;13.30;99.90
8537;DHT22;4306;50.210;10.628;2023-03-23T16:13:18;13.40;99.90
8537;DHT22;4306;50.210;10.628;2023-03-23T16:15:46;13.40;99.90
8537;DHT22;4306;50.210;10.628;2023-03-23T16:18:17;13.40;99.90